Time;durP1;ratioP1;P1;durP2;ratioP2;P2;SDS_P1;SDS_P2;PMS_P1;PMS_P2;Temp;Humidity;BMP_temperature;BMP_pressure;BME280_temperature;BME280_humidity;BME280_pressure;Samples;Min_cycle;Max_cycle;Signal;HPM_P1;HPM_P2
2023/09/21 00:01:00;;;;;;;13.07;5.95;;;;;;;;;;5032883;28;20047;-68
2023/09/21 00:03:30;;;;;;;12.18;5.50;;;;;;;;;;5034046;28;20061;-68
2023/09/21 00:05:58;;;;;;;13.98;6.22;;;;;;;;;;5033423;28;20065;-68
2023/09/21 00:08:26;;;;;;;10.98;5.68;;;;;;;;;;5033236;28;20048;-68
2023/09/21 00:10:54;;;;;;;9.30;5.97;;;;;;;;;;5033519;28;20072;-68
2023/09/21 00:13:27;;;;;;;13.55;5.88;;;;;;;;;;5033467;28;20049;-68
2023/09/21 00:15:55;;;;;;;10.98;5.60;;;;;;;;;;5033485;28;20054;-68
2023/09/21 00:18:23;;;;;;;11.05;5.78;;;;;;;;;;5033464;28;20044;-68
2023/09/21 00:20:55;;;;;;;9.77;6.35;;;;;;;;;;5033320;28;20041;-68
2023/09/21 00:23:26;;;;;;;14.35;6.32;;;;;;;;;;5033331;28;20037;-68
2023/09/21 00:25:55;;;;;;;12.15;6.60;;;;;;;;;;5033240;28;20037;-68
2023/09/21 00:28:22;;;;;;;11.27;6.82;;;;;;;;;;5033290;28;20053;-68
2023/09/21 00:30:53;;;;;;;14.90;6.47;;;;;;;;;;5031900;28;20037;-68
2023/09/21 00:33:20;;;;;;;14.10;6.85;;;;;;;;;;5031919;28;20041;-68
2023/09/21 00:35:48;;;;;;;12.35;6.10;;;;;;;;;;5031835;28;20049;-68
2023/09/21 00:38:16;;;;;;;14.75;6.32;;;;;;;;;;5031450;28;20053;-68
2023/09/21 00:40:43;;;;;;;11.55;6.30;;;;;;;;;;5031785;28;20060;-68
2023/09/21 00:43:20;;;;;;;10.05;6.50;;;;;;;;;;5031700;28;20048;-68
2023/09/21 00:45:51;;;;;;;13.52;6.78;;;;;;;;;;5031398;28;20049;-68
2023/09/21 00:48:25;;;;;;;12.15;6.70;;;;;;;;;;5031630;28;20068;-68
2023/09/21 00:50:56;;;;;;;10.90;6.10;;;;;;;;;;5032776;28;20115;-68
2023/09/21 00:53:27;;;;;;;10.10;6.53;;;;;;;;;;5031466;28;20041;-68
2023/09/21 00:55:56;;;;;;;14.35;6.85;;;;;;;;;;5031477;28;20091;-68
2023/09/21 00:58:25;;;;;;;11.48;6.70;;;;;;;;;;5031496;28;20454;-68
2023/09/21 01:00:55;;;;;;;13.63;7.22;;;;;;;;;;5031389;28;20049;-67
2023/09/21 01:03:25;;;;;;;13.00;6.68;;;;;;;;;;5031403;28;20081;-68
2023/09/21 01:05:53;;;;;;;9.18;6.72;;;;;;;;;;5031136;28;20132;-68
2023/09/21 01:08:28;;;;;;;11.15;7.10;;;;;;;;;;5031290;28;20042;-67
2023/09/21 01:10:55;;;;;;;;;;;;;;;;;;5032999;28;20045;-68
2023/09/21 01:13:25;;;;;;;11.73;7.22;;;;;;;;;;5032641;28;19921;-68
2023/09/21 01:16:00;;;;;;;12.15;6.78;;;;;;;;;;5031099;28;20133;-68
2023/09/21 01:18:27;;;;;;;;;;;;;;;;;;5032929;28;20048;-68
2023/09/21 01:20:59;;;;;;;12.82;7.60;;;;;;;;;;5031029;28;19921;-67
2023/09/21 01:23:52;;;;;;;10.48;7.15;;;;;;;;;;5031214;28;20049;-68
2023/09/21 01:26:20;;;;;;;13.35;7.78;;;;;;;;;;5010373;28;20046;-68
2023/09/21 01:28:48;;;;;;;11.52;7.53;;;;;;;;;;5031150;28;20045;-68
2023/09/21 01:31:20;;;;;;;15.63;7.95;;;;;;;;;;5031131;28;20052;-68
2023/09/21 01:33:47;;;;;;;12.35;8.00;;;;;;;;;;5031176;28;20625;-68
2023/09/21 01:36:15;;;;;;;11.40;7.60;;;;;;;;;;5032639;28;20470;-68
2023/09/21 01:38:44;;;;;;;11.93;7.10;;;;;;;;;;5030766;28;20088;-68
2023/09/21 01:41:16;;;;;;;18.27;8.10;;;;;;;;;;5032287;28;20133;-68
2023/09/21 01:43:44;;;;;;;14.90;8.02;;;;;;;;;;5032312;28;20052;-68
2023/09/21 01:46:18;;;;;;;17.85;7.95;;;;;;;;;;5032190;28;20072;-68
2023/09/21 01:48:46;;;;;;;14.18;8.50;;;;;;;;;;5030947;28;20041;-68
2023/09/21 01:51:16;;;;;;;12.82;8.20;;;;;;;;;;5030941;28;20037;-68
2023/09/21 01:53:45;;;;;;;14.18;8.00;;;;;;;;;;5030846;28;20499;-68
2023/09/21 01:56:14;;;;;;;13.00;7.93;;;;;;;;;;5031242;28;20045;-68
2023/09/21 01:58:42;;;;;;;15.02;8.20;;;;;;;;;;5036024;28;20398;-68
2023/09/21 02:01:10;;;;;;;18.02;8.50;;;;;;;;;;5034646;28;20056;-68
2023/09/21 02:03:39;;;;;;;12.57;8.68;;;;;;;;;;5034734;28;20052;-68
2023/09/21 02:06:07;;;;;;;16.52;9.07;;;;;;;;;;5035796;28;20491;-68
2023/09/21 02:08:35;;;;;;;14.10;8.43;;;;;;;;;;5034650;28;20038;-68
2023/09/21 02:11:05;;;;;;;11.20;8.27;;;;;;;;;;5035829;28;20489;-68
2023/09/21 02:13:33;;;;;;;15.15;8.77;;;;;;;;;;5035809;28;20072;-68
2023/09/21 02:16:02;;;;;;;17.98;8.43;;;;;;;;;;5034450;28;20040;-68
2023/09/21 02:18:30;;;;;;;20.63;8.95;;;;;;;;;;5034393;28;20495;-68
2023/09/21 02:21:00;;;;;;;14.18;8.77;;;;;;;;;;5035730;28;20044;-68
2023/09/21 02:23:30;;;;;;;14.52;9.07;;;;;;;;;;5035670;28;20049;-68
2023/09/21 02:25:57;;;;;;;14.95;9.25;;;;;;;;;;5034132;28;20371;-68
2023/09/21 02:28:25;;;;;;;13.63;9.52;;;;;;;;;;5034125;28;20284;-68
2023/09/21 02:30:52;;;;;;;20.50;9.90;;;;;;;;;;5035411;28;20048;-68
2023/09/21 02:33:22;;;;;;;16.00;9.70;;;;;;;;;;5035479;28;20045;-68
2023/09/21 02:35:50;;;;;;;15.27;9.73;;;;;;;;;;5033733;28;20045;-68
2023/09/21 02:38:20;;;;;;;13.30;9.45;;;;;;;;;;5035248;28;20407;-68
2023/09/21 02:40:48;;;;;;;15.07;9.02;;;;;;;;;;5034039;28;20046;-68
2023/09/21 02:43:16;;;;;;;17.25;10.68;;;;;;;;;;5033724;28;20045;-68
2023/09/21 02:45:45;;;;;;;15.13;9.80;;;;;;;;;;5035290;28;20041;-68
2023/09/21 02:48:15;;;;;;;17.90;10.35;;;;;;;;;;5033894;28;20045;-68
2023/09/21 02:50:47;;;;;;;16.98;10.60;;;;;;;;;;5033827;28;20136;-68
2023/09/21 02:53:16;;;;;;;15.48;10.02;;;;;;;;;;5033713;28;20450;-68
2023/09/21 02:55:45;;;;;;;16.13;10.38;;;;;;;;;;5033612;28;20041;-68
2023/09/21 02:58:13;;;;;;;19.92;11.20;;;;;;;;;;5033725;28;20392;-68
2023/09/21 03:00:49;;;;;;;21.63;10.45;;;;;;;;;;5033542;28;20048;-68
2023/09/21 03:03:23;;;;;;;15.20;10.50;;;;;;;;;;5050271;28;20053;-68
2023/09/21 03:05:52;;;;;;;15.30;10.45;;;;;;;;;;5033471;28;20419;-68
2023/09/21 03:08:22;;;;;;;16.27;10.90;;;;;;;;;;5034548;28;20399;-68
2023/09/21 03:10:54;;;;;;;17.25;12.05;;;;;;;;;;5033459;28;20044;-68
2023/09/21 03:13:23;;;;;;;19.67;11.77;;;;;;;;;;5033314;28;20050;-67
2023/09/21 03:15:59;;;;;;;18.92;13.02;;;;;;;;;;5033285;28;20087;-68
2023/09/21 03:18:30;;;;;;;18.40;11.10;;;;;;;;;;5033312;28;20495;-68
2023/09/21 03:20:57;;;;;;;21.88;12.45;;;;;;;;;;5033416;28;20065;-68
2023/09/21 03:23:26;;;;;;;19.52;12.82;;;;;;;;;;5033042;28;20068;-68
2023/09/21 03:25:54;;;;;;;23.10;13.07;;;;;;;;;;5049779;28;20064;-68
2023/09/21 03:28:24;;;;;;;23.05;14.05;;;;;;;;;;5034189;28;20052;-68
2023/09/21 03:30:56;;;;;;;19.90;13.55;;;;;;;;;;5033038;28;20049;-68
2023/09/21 03:33:25;;;;;;;22.00;13.40;;;;;;;;;;5033069;28;20041;-67
2023/09/21 03:35:53;;;;;;;20.65;14.13;;;;;;;;;;5033466;28;20109;-65
2023/09/21 03:38:22;;;;;;;19.65;14.00;;;;;;;;;;5034100;28;20462;-66
2023/09/21 03:40:52;;;;;;;18.83;13.65;;;;;;;;;;5032791;28;20037;-66
2023/09/21 03:43:22;;;;;;;20.50;13.73;;;;;;;;;;5032886;28;20049;-66
2023/09/21 03:45:50;;;;;;;24.13;14.45;;;;;;;;;;5032609;28;20052;-66
2023/09/21 03:48:18;;;;;;;19.65;14.38;;;;;;;;;;5033875;28;20049;-66
2023/09/21 03:50:49;;;;;;;22.75;14.80;;;;;;;;;;5032654;28;20407;-66
2023/09/21 03:53:16;;;;;;;26.85;14.68;;;;;;;;;;5022640;28;20050;-66
2023/09/21 03:55:46;;;;;;;20.88;14.00;;;;;;;;;;5032045;28;20068;-68
2023/09/21 03:58:15;;;;;;;20.95;14.40;;;;;;;;;;5032387;28;20136;-68
2023/09/21 04:00:46;;;;;;;29.80;15.18;;;;;;;;;;5033717;28;20099;-68
2023/09/21 04:03:14;;;;;;;24.52;14.90;;;;;;;;;;5032109;28;20095;-68
2023/09/21 04:06:06;;;;;;;21.70;14.07;;;;;;;;;;5032198;28;20052;-68
2023/09/21 04:08:34;;;;;;;21.70;13.98;;;;;;;;;;5032260;28;20045;-68
2023/09/21 04:11:01;;;;;;;22.35;15.00;;;;;;;;;;5032206;28;20042;-68
2023/09/21 04:13:29;;;;;;;23.50;15.25;;;;;;;;;;5031945;28;20115;-68
2023/09/21 04:15:56;;;;;;;22.98;14.90;;;;;;;;;;5032080;28;20100;-68
2023/09/21 04:18:24;;;;;;;18.80;14.52;;;;;;;;;;5032300;28;20128;-68
2023/09/21 04:20:54;;;;;;;22.35;15.13;;;;;;;;;;5031672;28;20046;-68
2023/09/21 04:23:37;;;;;;;21.77;14.68;;;;;;;;;;5031602;28;20049;-69
2023/09/21 04:26:05;;;;;;;24.75;14.93;;;;;;;;;;5031940;28;20049;-69
2023/09/21 04:28:33;;;;;;;24.95;14.73;;;;;;;;;;5031973;28;20050;-69
2023/09/21 04:31:01;;;;;;;25.67;15.32;;;;;;;;;;5031842;28;20486;-68
2023/09/21 04:33:28;;;;;;;22.10;15.50;;;;;;;;;;5033224;28;20136;-69
2023/09/21 04:35:56;;;;;;;28.17;14.95;;;;;;;;;;5031632;28;20045;-69
2023/09/21 04:38:24;;;;;;;23.20;15.20;;;;;;;;;;5031578;28;20108;-68
2023/09/21 04:40:52;;;;;;;26.00;16.23;;;;;;;;;;5031540;28;20414;-66
2023/09/21 04:43:21;;;;;;;25.92;14.98;;;;;;;;;;5031866;28;20045;-63
2023/09/21 04:45:49;;;;;;;21.17;14.98;;;;;;;;;;5031665;28;20515;-63
2023/09/21 04:48:17;;;;;;;23.65;15.27;;;;;;;;;;5030956;28;20136;-63
2023/09/21 04:50:48;;;;;;;25.42;15.48;;;;;;;;;;5032080;28;20046;-63
2023/09/21 04:53:16;;;;;;;26.02;15.45;;;;;;;;;;5030696;28;20107;-62
2023/09/21 04:55:46;;;;;;;23.17;15.25;;;;;;;;;;5030565;28;20042;-62
2023/09/21 04:58:13;;;;;;;24.23;15.63;;;;;;;;;;5031602;28;20069;-61
2023/09/21 05:00:41;;;;;;;26.73;15.43;;;;;;;;;;5032823;28;20387;-61
2023/09/21 05:03:10;;;;;;;22.38;15.35;;;;;;;;;;5031616;28;20529;-61
2023/09/21 05:05:37;;;;;;;25.65;14.95;;;;;;;;;;5031549;28;20042;-61
2023/09/21 05:08:05;;;;;;;20.80;15.27;;;;;;;;;;5031280;28;20095;-62
2023/09/21 05:10:33;;;;;;;22.80;14.27;;;;;;;;;;5031750;28;20040;-61
2023/09/21 05:13:00;;;;;;;25.67;15.32;;;;;;;;;;5031411;28;20041;-62
2023/09/21 05:15:28;;;;;;;25.02;14.18;;;;;;;;;;5032805;28;20046;-61
2023/09/21 05:17:56;;;;;;;22.48;14.18;;;;;;;;;;5032515;28;20052;-62
2023/09/21 05:20:23;;;;;;;23.73;14.98;;;;;;;;;;5032644;28;20439;-61
2023/09/21 05:22:51;;;;;;;26.33;14.95;;;;;;;;;;5032750;28;20069;-62
2023/09/21 05:25:19;;;;;;;21.60;15.70;;;;;;;;;;5032574;28;20041;-62
2023/09/21 05:27:46;;;;;;;27.45;15.38;;;;;;;;;;5032392;28;20050;-63
2023/09/21 05:30:15;;;;;;;26.77;15.27;;;;;;;;;;5032486;28;20045;-63
2023/09/21 05:32:42;;;;;;;21.25;14.85;;;;;;;;;;5035407;28;20045;-62
2023/09/21 05:35:15;;;;;;;23.83;14.95;;;;;;;;;;5036440;28;20048;-62
2023/09/21 05:37:44;;;;;;;22.38;13.85;;;;;;;;;;5036515;28;20049;-62
2023/09/21 05:40:12;;;;;;;20.63;16.77;;;;;;;;;;5036590;28;20069;-62
2023/09/21 05:42:39;;;;;;;21.92;16.23;;;;;;;;;;5036467;28;20523;-62
2023/09/21 05:45:07;;;;;;;23.48;15.45;;;;;;;;;;5036786;28;20385;-62
2023/09/21 05:47:36;;;;;;;21.25;14.75;;;;;;;;;;5036268;28;20045;-62
2023/09/21 05:50:05;;;;;;;27.40;15.75;;;;;;;;;;5036350;28;20041;-62
2023/09/21 05:52:35;;;;;;;20.92;12.68;;;;;;;;;;5036253;28;20068;-62
2023/09/21 05:55:03;;;;;;;19.00;12.88;;;;;;;;;;5036231;28;20510;-62
2023/09/21 05:57:31;;;;;;;20.98;13.43;;;;;;;;;;5036544;28;20384;-62
2023/09/21 05:59:59;;;;;;;18.65;13.45;;;;;;;;;;5036079;28;20034;-62
2023/09/21 06:02:27;;;;;;;17.65;12.40;;;;;;;;;;5036048;28;20080;-63
2023/09/21 06:04:55;;;;;;;16.60;12.15;;;;;;;;;;5036344;28;20041;-63
2023/09/21 06:07:24;;;;;;;31.70;20.25;;;;;;;;;;5035935;28;20447;-63
2023/09/21 06:09:52;;;;;;;16.98;13.13;;;;;;;;;;5035919;28;20044;-63
2023/09/21 06:12:19;;;;;;;19.25;12.32;;;;;;;;;;5035824;28;20037;-63
2023/09/21 06:14:50;;;;;;;18.00;10.82;;;;;;;;;;5034728;28;20080;-63
2023/09/21 06:17:18;;;;;;;18.30;10.85;;;;;;;;;;5035780;28;20475;-63
2023/09/21 06:19:46;;;;;;;13.75;10.23;;;;;;;;;;5018134;28;20060;-63
2023/09/21 06:22:13;;;;;;;28.27;18.80;;;;;;;;;;5035755;28;20100;-64
2023/09/21 06:24:42;;;;;;;19.00;11.05;;;;;;;;;;5035617;28;20568;-63
2023/09/21 06:27:10;;;;;;;15.30;8.82;;;;;;;;;;5034547;28;20052;-63
2023/09/21 06:29:38;;;;;;;12.50;9.20;;;;;;;;;;5034463;28;20050;-63
2023/09/21 06:32:07;;;;;;;41.45;27.35;;;;;;;;;;5035690;28;20402;-63
2023/09/21 06:34:41;;;;;;;19.73;11.57;;;;;;;;;;5035542;28;20641;-64
2023/09/21 06:37:10;;;;;;;23.08;14.85;;;;;;;;;;5035308;28;20049;-64
2023/09/21 06:39:37;;;;;;;15.82;9.60;;;;;;;;;;5035513;28;20040;-63
2023/09/21 06:42:06;;;;;;;13.75;7.88;;;;;;;;;;5034892;28;20048;-63
2023/09/21 06:44:34;;;;;;;13.63;8.82;;;;;;;;;;5035246;28;20040;-61
2023/09/21 06:47:02;;;;;;;15.85;8.90;;;;;;;;;;5035199;28;20046;-61
2023/09/21 06:49:29;;;;;;;9.00;8.05;;;;;;;;;;5035181;28;20041;-63
2023/09/21 06:51:58;;;;;;;11.93;7.18;;;;;;;;;;5035352;28;20044;-64
2023/09/21 06:54:29;;;;;;;11.90;7.55;;;;;;;;;;5035231;28;20045;-63
2023/09/21 06:57:03;;;;;;;13.05;7.40;;;;;;;;;;5035009;28;20125;-64
2023/09/21 06:59:34;;;;;;;9.75;7.80;;;;;;;;;;5034980;28;20073;-64
2023/09/21 07:02:03;;;;;;;15.30;9.63;;;;;;;;;;5034993;28;20042;-64
2023/09/21 07:04:33;;;;;;;12.73;7.90;;;;;;;;;;5035031;28;20077;-64
2023/09/21 07:07:04;;;;;;;15.80;7.82;;;;;;;;;;5034671;28;20065;-64
2023/09/21 07:09:34;;;;;;;15.27;7.13;;;;;;;;;;5034907;28;20041;-64
2023/09/21 07:12:03;;;;;;;9.98;7.28;;;;;;;;;;5034788;28;20037;-63
2023/09/21 07:14:32;;;;;;;10.80;6.93;;;;;;;;;;5034621;28;20049;-63
2023/09/21 07:17:00;;;;;;;8.77;6.60;;;;;;;;;;5034789;28;20049;-63
2023/09/21 07:19:29;;;;;;;9.35;7.10;;;;;;;;;;5033391;28;20398;-63
2023/09/21 07:21:56;;;;;;;9.90;6.45;;;;;;;;;;5034642;28;20045;-63
2023/09/21 07:24:24;;;;;;;14.30;6.45;;;;;;;;;;5034713;28;20037;-63
2023/09/21 07:26:53;;;;;;;11.27;6.43;;;;;;;;;;5034458;28;20041;-63
2023/09/21 07:29:23;;;;;;;11.35;6.78;;;;;;;;;;5034656;28;20456;-64
2023/09/21 07:31:51;;;;;;;10.38;6.03;;;;;;;;;;5034481;28;20045;-63
2023/09/21 07:34:18;;;;;;;11.32;6.30;;;;;;;;;;5034423;28;20045;-63
2023/09/21 07:36:49;;;;;;;12.07;7.25;;;;;;;;;;5034452;28;20095;-63
2023/09/21 07:39:17;;;;;;;11.68;6.53;;;;;;;;;;5034447;28;20030;-63
2023/09/21 07:41:46;;;;;;;12.80;6.30;;;;;;;;;;5034207;28;20045;-63
2023/09/21 07:44:16;;;;;;;11.27;6.43;;;;;;;;;;5034388;28;20087;-63
2023/09/21 07:46:45;;;;;;;11.48;6.38;;;;;;;;;;5034215;28;20453;-63
2023/09/21 07:49:13;;;;;;;10.27;6.57;;;;;;;;;;5033932;28;20048;-63
2023/09/21 07:51:41;;;;;;;12.82;7.25;;;;;;;;;;5034300;28;20045;-62
2023/09/21 07:54:08;;;;;;;55.33;33.92;;;;;;;;;;5033193;28;20042;-63
2023/09/21 07:56:36;;;;;;;30.17;16.17;;;;;;;;;;5034085;28;20034;-63
2023/09/21 07:59:10;;;;;;;15.00;6.43;;;;;;;;;;5033933;28;20038;-63
2023/09/21 08:01:37;;;;;;;9.73;5.65;;;;;;;;;;5032776;28;20547;-63
2023/09/21 08:04:05;;;;;;;13.10;6.57;;;;;;;;;;5033854;28;20056;-63
2023/09/21 08:06:33;;;;;;;10.85;7.72;;;;;;;;;;5033744;28;20041;-63
2023/09/21 08:09:01;;;;;;;11.60;6.03;;;;;;;;;;5033591;28;20049;-63
2023/09/21 08:11:28;;;;;;;9.57;5.93;;;;;;;;;;5033584;28;20486;-63
2023/09/21 08:13:58;;;;;;;10.57;6.15;;;;;;;;;;5032345;28;20041;-63
2023/09/21 08:16:27;;;;;;;9.45;5.65;;;;;;;;;;5033651;28;20068;-63
2023/09/21 08:18:55;;;;;;;11.00;5.78;;;;;;;;;;5033508;28;20045;-63
2023/09/21 08:21:22;;;;;;;11.73;5.55;;;;;;;;;;5033448;28;20057;-63
2023/09/21 08:23:50;;;;;;;9.68;5.63;;;;;;;;;;5015865;28;20045;-64
2023/09/21 08:26:18;;;;;;;7.88;5.45;;;;;;;;;;5033555;28;20037;-63
2023/09/21 08:28:47;;;;;;;12.77;5.82;;;;;;;;;;5033353;28;20054;-63
2023/09/21 08:31:14;;;;;;;9.65;5.82;;;;;;;;;;5033271;28;20037;-63
2023/09/21 08:33:42;;;;;;;9.70;5.70;;;;;;;;;;5033215;28;20547;-63
2023/09/21 08:36:10;;;;;;;12.77;5.28;;;;;;;;;;5033722;28;20379;-63
2023/09/21 08:38:38;;;;;;;7.63;5.38;;;;;;;;;;5032949;28;20057;-63
2023/09/21 08:41:07;;;;;;;13.13;5.10;;;;;;;;;;5032253;28;20080;-63
2023/09/21 08:43:35;;;;;;;7.18;5.35;;;;;;;;;;5033284;28;20087;-62
2023/09/21 08:46:03;;;;;;;7.55;5.43;;;;;;;;;;5033074;28;20065;-63
2023/09/21 08:48:31;;;;;;;13.73;7.75;;;;;;;;;;5032933;28;20565;-63
2023/09/21 08:51:00;;;;;;;13.25;8.40;;;;;;;;;;5031990;28;20133;-63
2023/09/21 08:53:28;;;;;;;8.45;5.72;;;;;;;;;;5031986;28;20065;-63
2023/09/21 08:55:58;;;;;;;10.80;5.72;;;;;;;;;;5032891;28;20107;-63
2023/09/21 08:58:27;;;;;;;17.67;8.00;;;;;;;;;;5033152;28;20059;-63
2023/09/21 09:00:56;;;;;;;9.75;5.70;;;;;;;;;;5032943;28;20041;-63
2023/09/21 09:03:27;;;;;;;14.60;9.63;;;;;;;;;;5032765;28;20103;-63
2023/09/21 09:05:58;;;;;;;10.73;5.70;;;;;;;;;;5032677;28;20065;-62
2023/09/21 09:08:27;;;;;;;18.25;7.65;;;;;;;;;;5032608;28;20045;-63
2023/09/21 09:10:56;;;;;;;15.30;7.50;;;;;;;;;;5032637;28;20037;-63
2023/09/21 09:13:33;;;;;;;13.45;7.55;;;;;;;;;;5032631;28;20560;-63
2023/09/21 09:16:01;;;;;;;12.57;6.28;;;;;;;;;;5032548;28;20048;-63
2023/09/21 09:18:28;;;;;;;30.55;16.85;;;;;;;;;;5031339;28;20042;-63
2023/09/21 09:20:56;;;;;;;9.45;5.22;;;;;;;;;;5032544;28;20436;-63
2023/09/21 09:23:24;;;;;;;16.77;9.90;;;;;;;;;;5032673;28;20041;-63
2023/09/21 09:25:54;;;;;;;21.35;9.60;;;;;;;;;;5032763;28;20486;-63
2023/09/21 09:28:22;;;;;;;8.95;5.80;;;;;;;;;;5032459;28;20053;-63
2023/09/21 09:30:52;;;;;;;16.17;8.48;;;;;;;;;;5032454;28;20124;-63
2023/09/21 09:33:25;;;;;;;10.60;6.10;;;;;;;;;;5032546;28;20049;-63
2023/09/21 09:35:53;;;;;;;10.38;5.78;;;;;;;;;;5032743;28;20091;-63
2023/09/21 09:38:22;;;;;;;10.63;5.80;;;;;;;;;;5032225;28;20107;-63
2023/09/21 09:40:49;;;;;;;16.05;6.35;;;;;;;;;;5032753;28;20045;-63
2023/09/21 09:43:17;;;;;;;18.67;9.95;;;;;;;;;;5031113;28;20042;-63
2023/09/21 09:45:44;;;;;;;8.90;5.82;;;;;;;;;;5032439;28;20052;-63
2023/09/21 09:48:18;;;;;;;11.00;5.25;;;;;;;;;;5032332;28;20044;-63
2023/09/21 09:50:47;;;;;;;8.80;5.28;;;;;;;;;;5032305;28;20045;-63
2023/09/21 09:53:17;;;;;;;14.43;7.25;;;;;;;;;;5032365;28;20042;-63
2023/09/21 09:55:46;;;;;;;10.13;6.38;;;;;;;;;;5032547;28;20049;-63
2023/09/21 09:58:15;;;;;;;10.85;5.07;;;;;;;;;;5032293;28;20038;-63
2023/09/21 10:00:44;;;;;;;8.02;5.57;;;;;;;;;;5032252;28;20038;-63
2023/09/21 10:03:13;;;;;;;13.80;5.38;;;;;;;;;;5032498;28;20038;-63
2023/09/21 10:05:42;;;;;;;8.90;5.15;;;;;;;;;;5032275;28;20483;-63
2023/09/21 10:08:10;;;;;;;11.77;5.15;;;;;;;;;;5031997;28;20053;-63
2023/09/21 10:10:44;;;;;;;9.88;5.05;;;;;;;;;;5032174;28;20038;-63
2023/09/21 10:13:12;;;;;;;9.40;5.25;;;;;;;;;;5032049;28;20053;-63
2023/09/21 10:15:41;;;;;;;14.65;5.72;;;;;;;;;;5030807;28;20391;-63
2023/09/21 10:18:09;;;;;;;11.68;5.35;;;;;;;;;;5033858;28;20033;-63
2023/09/21 10:20:37;;;;;;;12.00;5.38;;;;;;;;;;5036118;28;20091;-63
2023/09/21 10:23:09;;;;;;;10.80;5.10;;;;;;;;;;5035740;28;20041;-63
2023/09/21 10:25:39;;;;;;;16.48;4.60;;;;;;;;;;5035736;28;20080;-63
2023/09/21 10:28:27;;;;;;;9.55;4.75;;;;;;;;;;5035396;28;20045;-63
2023/09/21 10:31:08;;;;;;;10.10;4.55;;;;;;;;;;5035676;28;20091;-63
2023/09/21 10:33:36;;;;;;;7.53;4.38;;;;;;;;;;5035822;28;20124;-63
2023/09/21 10:36:05;;;;;;;11.70;4.85;;;;;;;;;;5035587;28;20061;-63
2023/09/21 10:38:33;;;;;;;9.45;4.32;;;;;;;;;;5035249;28;20049;-63
2023/09/21 10:41:21;;;;;;;10.02;4.57;;;;;;;;;;5035543;28;20136;-63
2023/09/21 10:43:49;;;;;;;7.18;4.88;;;;;;;;;;5035379;28;20117;-63
2023/09/21 10:46:17;;;;;;;10.40;5.07;;;;;;;;;;5035315;28;20045;-63
2023/09/21 10:48:46;;;;;;;10.80;4.97;;;;;;;;;;5035005;28;20506;-63
2023/09/21 10:51:13;;;;;;;13.55;6.18;;;;;;;;;;5035197;28;20045;-63
2023/09/21 10:53:42;;;;;;;11.07;4.78;;;;;;;;;;5035181;28;20415;-63
2023/09/21 10:56:09;;;;;;;13.18;5.18;;;;;;;;;;5035140;28;20385;-63
2023/09/21 10:58:37;;;;;;;14.82;5.20;;;;;;;;;;5035055;28;20049;-63
2023/09/21 11:01:05;;;;;;;13.73;5.50;;;;;;;;;;5035171;28;20034;-63
2023/09/21 11:03:35;;;;;;;13.60;5.22;;;;;;;;;;5035298;28;20232;-63
2023/09/21 11:06:03;;;;;;;14.43;5.32;;;;;;;;;;5034825;28;20037;-63
2023/09/21 11:08:30;;;;;;;9.68;4.65;;;;;;;;;;5035008;28;20042;-63
2023/09/21 11:10:59;;;;;;;6.97;4.85;;;;;;;;;;5034860;28;20403;-63
2023/09/21 11:13:27;;;;;;;27.15;5.65;;;;;;;;;;5034846;28;20044;-63
2023/09/21 11:15:55;;;;;;;13.27;5.47;;;;;;;;;;5034983;28;20034;-63
2023/09/21 11:18:22;;;;;;;9.27;4.97;;;;;;;;;;5034701;28;20069;-63
2023/09/21 11:20:50;;;;;;;8.50;4.30;;;;;;;;;;5034785;28;20046;-63
2023/09/21 11:23:18;;;;;;;10.95;5.00;;;;;;;;;;5034809;28;20048;-63
2023/09/21 11:25:50;;;;;;;12.88;4.75;;;;;;;;;;5034576;28;20116;-63
2023/09/21 11:28:22;;;;;;;11.45;5.57;;;;;;;;;;5034470;28;20121;-63
2023/09/21 11:30:51;;;;;;;10.27;5.55;;;;;;;;;;5033895;28;20041;-63
2023/09/21 11:33:19;;;;;;;14.13;5.85;;;;;;;;;;5034730;28;20124;-63
2023/09/21 11:35:47;;;;;;;11.40;4.63;;;;;;;;;;5034428;28;20452;-63
2023/09/21 11:38:18;;;;;;;10.48;4.88;;;;;;;;;;5034199;28;20051;-63
2023/09/21 11:40:46;;;;;;;14.93;4.95;;;;;;;;;;5034473;28;20409;-63
2023/09/21 11:43:20;;;;;;;9.52;4.75;;;;;;;;;;5034283;28;20034;-63
2023/09/21 11:45:47;;;;;;;9.40;4.05;;;;;;;;;;5034335;28;20033;-63
2023/09/21 11:48:15;;;;;;;7.30;4.70;;;;;;;;;;5033979;28;20379;-63
2023/09/21 11:50:44;;;;;;;11.27;4.38;;;;;;;;;;5034185;28;20118;-63
2023/09/21 11:53:12;;;;;;;9.65;4.07;;;;;;;;;;5034037;28;20116;-63
2023/09/21 11:55:43;;;;;;;15.95;4.18;;;;;;;;;;5032910;28;20081;-63
2023/09/21 11:58:13;;;;;;;10.27;4.30;;;;;;;;;;5033921;28;20029;-63
2023/09/21 12:00:45;;;;;;;11.60;4.70;;;;;;;;;;5033894;28;20041;-63
2023/09/21 12:03:20;;;;;;;11.60;4.55;;;;;;;;;;5033791;28;20045;-63
2023/09/21 12:05:47;;;;;;;10.15;4.70;;;;;;;;;;5033821;28;20119;-63
2023/09/21 12:08:16;;;;;;;11.80;4.38;;;;;;;;;;5033703;28;20045;-63
2023/09/21 12:10:50;;;;;;;9.05;4.53;;;;;;;;;;5032438;28;20700;-63
2023/09/21 12:13:19;;;;;;;12.65;4.45;;;;;;;;;;5032453;28;20415;-63
2023/09/21 12:15:46;;;;;;;10.73;4.85;;;;;;;;;;5033574;28;20052;-63
2023/09/21 12:18:15;;;;;;;9.85;4.53;;;;;;;;;;5032222;28;20045;-63
2023/09/21 12:20:56;;;;;;;10.70;4.40;;;;;;;;;;5033404;28;20053;-63
2023/09/21 12:23:25;;;;;;;10.02;4.97;;;;;;;;;;5033465;28;20037;-63
2023/09/21 12:25:54;;;;;;;8.63;4.22;;;;;;;;;;5033427;28;20052;-63
2023/09/21 12:28:22;;;;;;;8.63;4.28;;;;;;;;;;5033362;28;20041;-63
2023/09/21 12:30:51;;;;;;;9.25;3.97;;;;;;;;;;5032071;28;20061;-63
2023/09/21 12:33:20;;;;;;;8.05;4.20;;;;;;;;;;5033359;28;20049;-63
2023/09/21 12:36:12;;;;;;;8.07;4.30;;;;;;;;;;5033528;28;20045;-63
2023/09/21 12:38:43;;;;;;;8.85;3.90;;;;;;;;;;5032964;28;20092;-63
2023/09/21 12:41:11;;;;;;;7.07;4.00;;;;;;;;;;5032765;28;20076;-63
2023/09/21 12:43:38;;;;;;;9.00;4.00;;;;;;;;;;5033010;28;20048;-63
2023/09/21 12:46:08;;;;;;;15.15;4.70;;;;;;;;;;5033184;28;20052;-63
2023/09/21 12:48:36;;;;;;;8.05;3.90;;;;;;;;;;5033001;28;20045;-63
2023/09/21 12:51:04;;;;;;;9.38;4.30;;;;;;;;;;5033206;28;20128;-63
2023/09/21 12:53:34;;;;;;;10.18;4.28;;;;;;;;;;5031813;28;20042;-63
2023/09/21 12:56:01;;;;;;;12.82;5.07;;;;;;;;;;5032887;28;20041;-63
2023/09/21 12:58:29;;;;;;;11.13;5.53;;;;;;;;;;5031616;28;20495;-63
2023/09/21 13:00:57;;;;;;;12.93;5.53;;;;;;;;;;5032869;28;20046;-62
2023/09/21 13:03:25;;;;;;;10.63;5.22;;;;;;;;;;5032840;28;20042;-63
2023/09/21 13:05:53;;;;;;;8.45;4.90;;;;;;;;;;5032883;28;20041;-63
2023/09/21 13:08:20;;;;;;;9.82;4.88;;;;;;;;;;5032692;28;20446;-63
2023/09/21 13:10:48;;;;;;;13.07;4.93;;;;;;;;;;5032653;28;20495;-63
2023/09/21 13:13:15;;;;;;;12.68;4.95;;;;;;;;;;5032680;28;20041;-63
2023/09/21 13:15:43;;;;;;;9.32;4.90;;;;;;;;;;5031540;28;20044;-63
2023/09/21 13:18:10;;;;;;;9.80;4.68;;;;;;;;;;5029649;28;20046;-63
2023/09/21 13:20:38;;;;;;;14.63;5.88;;;;;;;;;;5019135;28;20045;-63
2023/09/21 13:23:07;;;;;;;10.00;5.10;;;;;;;;;;5020398;28;20034;-63
2023/09/21 13:25:34;;;;;;;10.52;6.72;;;;;;;;;;5020930;28;20038;-61
2023/09/21 13:28:02;;;;;;;9.70;3.90;;;;;;;;;;5012966;28;20129;-63
2023/09/21 13:30:30;;;;;;;14.07;5.18;;;;;;;;;;5014557;28;20041;-61
2023/09/21 13:32:57;;;;;;;16.10;6.55;;;;;;;;;;5013466;28;20132;-62
2023/09/21 13:35:25;;;;;;;18.60;7.00;;;;;;;;;;5018621;28;20037;-62
2023/09/21 13:37:52;;;;;;;17.52;5.57;;;;;;;;;;5019296;28;20054;-62
2023/09/21 13:40:22;;;;;;;12.00;4.70;;;;;;;;;;5020738;28;20049;-62
2023/09/21 13:42:49;;;;;;;10.45;4.85;;;;;;;;;;5021989;28;20038;-63
2023/09/21 13:45:17;;;;;;;11.13;4.80;;;;;;;;;;5017827;28;20120;-63
2023/09/21 13:47:45;;;;;;;12.38;4.60;;;;;;;;;;5015624;28;20084;-64
2023/09/21 13:50:12;;;;;;;13.48;5.10;;;;;;;;;;5017729;28;20095;-63
2023/09/21 13:52:40;;;;;;;8.68;4.47;;;;;;;;;;5020421;28;20052;-64
2023/09/21 13:55:09;;;;;;;12.57;4.45;;;;;;;;;;5023966;28;20052;-64
2023/09/21 13:57:46;;;;;;;10.98;4.43;;;;;;;;;;5027021;28;20056;-63
2023/09/21 14:00:14;;;;;;;9.75;5.10;;;;;;;;;;5025813;28;20041;-70
2023/09/21 14:02:48;;;;;;;9.65;4.80;;;;;;;;;;5017976;28;20038;-69
2023/09/21 14:05:21;;;;;;;9.95;4.47;;;;;;;;;;5019489;28;20042;-69
2023/09/21 14:07:50;;;;;;;11.90;5.28;;;;;;;;;;5030501;28;20041;-71
2023/09/21 14:10:18;;;;;;;17.38;6.28;;;;;;;;;;5014823;28;20060;-72
2023/09/21 14:12:49;;;;;;;11.65;5.32;;;;;;;;;;5016839;28;20037;-71
2023/09/21 14:15:17;;;;;;;10.05;5.20;;;;;;;;;;5017318;28;20050;-71
2023/09/21 14:17:45;;;;;;;13.05;5.43;;;;;;;;;;5016026;28;20432;-71
2023/09/21 14:20:13;;;;;;;11.98;5.53;;;;;;;;;;5020267;28;20125;-71
2023/09/21 14:22:41;;;;;;;9.95;5.13;;;;;;;;;;5013155;28;20133;-70
2023/09/21 14:25:09;;;;;;;11.57;4.70;;;;;;;;;;5022789;28;20091;-71
2023/09/21 14:27:36;;;;;;;10.98;4.60;;;;;;;;;;5018929;28;20037;-71
2023/09/21 14:30:05;;;;;;;10.38;5.30;;;;;;;;;;5019327;28;20046;-71
2023/09/21 14:32:33;;;;;;;11.95;5.40;;;;;;;;;;5029970;28;20048;-70
2023/09/21 14:35:04;;;;;;;12.57;6.07;;;;;;;;;;5029594;28;20535;-71
2023/09/21 14:37:31;;;;;;;13.02;5.43;;;;;;;;;;5029571;28;20049;-71
2023/09/21 14:39:59;;;;;;;11.80;5.57;;;;;;;;;;5029720;28;20147;-70